sensor_id;sensor_type;location;lat;lon;timestamp;P1;durP1;ratioP1;P2;durP2;ratioP2
37169;SDS011;23062;13.952;100.608;2023-05-27T00:00:48;28.00;;;21.00;;
37169;SDS011;23062;13.952;100.608;2023-05-27T00:05:14;23.00;;;17.00;;
37169;SDS011;23062;13.952;100.608;2023-05-27T00:09:40;25.00;;;19.00;;
37169;SDS011;23062;13.952;100.608;2023-05-27T00:14:12;27.00;;;21.00;;
37169;SDS011;23062;13.952;100.608;2023-05-27T00:18:40;26.00;;;20.00;;
37169;SDS011;23062;13.952;100.608;2023-05-27T00:23:09;28.00;;;20.00;;
37169;SDS011;23062;13.952;100.608;2023-05-27T00:27:35;26.00;;;20.00;;
37169;SDS011;23062;13.952;100.608;2023-05-27T00:32:02;32.00;;;23.00;;
37169;SDS011;23062;13.952;100.608;2023-05-27T00:36:29;26.00;;;20.00;;
37169;SDS011;23062;13.952;100.608;2023-05-27T00:41:02;26.00;;;19.00;;
37169;SDS011;23062;13.952;100.608;2023-05-27T00:45:28;27.00;;;21.00;;
37169;SDS011;23062;13.952;100.608;2023-05-27T00:49:55;28.00;;;20.00;;
37169;SDS011;23062;13.952;100.608;2023-05-27T00:54:29;29.00;;;21.00;;
37169;SDS011;23062;13.952;100.608;2023-05-27T00:59:01;25.00;;;18.00;;
37169;SDS011;23062;13.952;100.608;2023-05-27T01:03:27;25.00;;;18.00;;
37169;SDS011;23062;13.952;100.608;2023-05-27T01:07:59;22.00;;;17.00;;
37169;SDS011;23062;13.952;100.608;2023-05-27T01:12:44;26.00;;;19.00;;
37169;SDS011;23062;13.952;100.608;2023-05-27T01:17:11;23.00;;;18.00;;
37169;SDS011;23062;13.952;100.608;2023-05-27T01:21:42;24.00;;;18.00;;
37169;SDS011;23062;13.952;100.608;2023-05-27T01:26:13;24.00;;;18.00;;
37169;SDS011;23062;13.952;100.608;2023-05-27T01:30:41;27.00;;;20.00;;
37169;SDS011;23062;13.952;100.608;2023-05-27T01:35:12;24.00;;;18.00;;
37169;SDS011;23062;13.952;100.608;2023-05-27T01:39:49;26.00;;;19.00;;
37169;SDS011;23062;13.952;100.608;2023-05-27T01:44:18;25.00;;;19.00;;
37169;SDS011;23062;13.952;100.608;2023-05-27T01:48:44;27.00;;;21.00;;
37169;SDS011;23062;13.952;100.608;2023-05-27T01:53:10;26.00;;;19.00;;
37169;SDS011;23062;13.952;100.608;2023-05-27T01:57:43;25.00;;;16.80;;
37169;SDS011;23062;13.952;100.608;2023-05-27T02:02:09;25.00;;;18.00;;
37169;SDS011;23062;13.952;100.608;2023-05-27T02:06:43;26.00;;;19.00;;
37169;SDS011;23062;13.952;100.608;2023-05-27T02:11:12;27.00;;;20.00;;
37169;SDS011;23062;13.952;100.608;2023-05-27T02:15:38;28.00;;;20.00;;
37169;SDS011;23062;13.952;100.608;2023-05-27T02:20:11;27.00;;;20.00;;
37169;SDS011;23062;13.952;100.608;2023-05-27T02:24:37;28.00;;;20.00;;
37169;SDS011;23062;13.952;100.608;2023-05-27T02:29:06;24.00;;;17.00;;
37169;SDS011;23062;13.952;100.608;2023-05-27T02:33:32;25.00;;;16.80;;
37169;SDS011;23062;13.952;100.608;2023-05-27T02:38:05;29.00;;;21.00;;
37169;SDS011;23062;13.952;100.608;2023-05-27T02:42:30;28.00;;;20.00;;
37169;SDS011;23062;13.952;100.608;2023-05-27T02:46:56;24.00;;;18.00;;
37169;SDS011;23062;13.952;100.608;2023-05-27T02:51:27;23.00;;;18.00;;
37169;SDS011;23062;13.952;100.608;2023-05-27T02:55:55;25.00;;;19.00;;
37169;SDS011;23062;13.952;100.608;2023-05-27T03:00:21;25.00;;;20.00;;
37169;SDS011;23062;13.952;100.608;2023-05-27T03:04:49;26.00;;;20.00;;
37169;SDS011;23062;13.952;100.608;2023-05-27T03:09:24;25.00;;;16.80;;
37169;SDS011;23062;13.952;100.608;2023-05-27T03:13:50;26.00;;;20.00;;
37169;SDS011;23062;13.952;100.608;2023-05-27T03:18:23;26.00;;;19.00;;
37169;SDS011;23062;13.952;100.608;2023-05-27T03:22:51;25.00;;;18.00;;
37169;SDS011;23062;13.952;100.608;2023-05-27T03:27:17;24.00;;;18.00;;
37169;SDS011;23062;13.952;100.608;2023-05-27T03:31:45;24.00;;;19.00;;
37169;SDS011;23062;13.952;100.608;2023-05-27T03:36:11;26.00;;;19.00;;
37169;SDS011;23062;13.952;100.608;2023-05-27T03:40:39;23.00;;;18.00;;
37169;SDS011;23062;13.952;100.608;2023-05-27T03:45:04;29.00;;;21.00;;
37169;SDS011;23062;13.952;100.608;2023-05-27T03:49:39;23.00;;;17.00;;
37169;SDS011;23062;13.952;100.608;2023-05-27T03:54:12;26.00;;;20.00;;
37169;SDS011;23062;13.952;100.608;2023-05-27T03:58:39;25.00;;;19.00;;
37169;SDS011;23062;13.952;100.608;2023-05-27T04:03:05;28.00;;;21.00;;
37169;SDS011;23062;13.952;100.608;2023-05-27T04:07:32;24.00;;;18.00;;
37169;SDS011;23062;13.952;100.608;2023-05-27T04:12:04;27.00;;;20.00;;
37169;SDS011;23062;13.952;100.608;2023-05-27T04:16:36;26.00;;;19.00;;
37169;SDS011;23062;13.952;100.608;2023-05-27T04:21:11;24.00;;;18.00;;
37169;SDS011;23062;13.952;100.608;2023-05-27T04:25:36;28.00;;;20.00;;
37169;SDS011;23062;13.952;100.608;2023-05-27T04:30:02;23.00;;;18.00;;
37169;SDS011;23062;13.952;100.608;2023-05-27T04:34:32;28.00;;;20.00;;
37169;SDS011;23062;13.952;100.608;2023-05-27T04:39:00;27.00;;;21.00;;
37169;SDS011;23062;13.952;100.608;2023-05-27T04:43:26;32.00;;;24.00;;
37169;SDS011;23062;13.952;100.608;2023-05-27T04:47:59;40.00;;;29.00;;
37169;SDS011;23062;13.952;100.608;2023-05-27T04:52:32;33.00;;;25.00;;
37169;SDS011;23062;13.952;100.608;2023-05-27T04:56:59;33.00;;;24.00;;
37169;SDS011;23062;13.952;100.608;2023-05-27T05:01:26;30.00;;;23.00;;
37169;SDS011;23062;13.952;100.608;2023-05-27T05:05:55;29.00;;;23.00;;
37169;SDS011;23062;13.952;100.608;2023-05-27T05:10:20;27.00;;;21.00;;
37169;SDS011;23062;13.952;100.608;2023-05-27T05:14:55;27.00;;;20.00;;
37169;SDS011;23062;13.952;100.608;2023-05-27T05:19:20;26.00;;;19.00;;
37169;SDS011;23062;13.952;100.608;2023-05-27T05:23:47;29.00;;;21.00;;
37169;SDS011;23062;13.952;100.608;2023-05-27T05:28:13;31.00;;;23.00;;
37169;SDS011;23062;13.952;100.608;2023-05-27T05:32:39;25.00;;;18.00;;
37169;SDS011;23062;13.952;100.608;2023-05-27T05:37:11;26.00;;;20.00;;
37169;SDS011;23062;13.952;100.608;2023-05-27T05:41:46;25.00;;;19.00;;
37169;SDS011;23062;13.952;100.608;2023-05-27T05:46:14;28.00;;;21.00;;
37169;SDS011;23062;13.952;100.608;2023-05-27T05:50:47;26.00;;;20.00;;
37169;SDS011;23062;13.952;100.608;2023-05-27T05:55:15;26.00;;;19.00;;
37169;SDS011;23062;13.952;100.608;2023-05-27T05:59:48;31.00;;;23.00;;
37169;SDS011;23062;13.952;100.608;2023-05-27T06:04:15;28.00;;;20.00;;
37169;SDS011;23062;13.952;100.608;2023-05-27T06:08:40;28.00;;;20.00;;
37169;SDS011;23062;13.952;100.608;2023-05-27T06:13:09;27.00;;;19.00;;
37169;SDS011;23062;13.952;100.608;2023-05-27T06:17:41;25.00;;;18.00;;
37169;SDS011;23062;13.952;100.608;2023-05-27T06:22:10;27.00;;;20.00;;
37169;SDS011;23062;13.952;100.608;2023-05-27T06:26:38;24.00;;;18.00;;
37169;SDS011;23062;13.952;100.608;2023-05-27T06:31:04;27.00;;;20.00;;
37169;SDS011;23062;13.952;100.608;2023-05-27T06:35:31;25.00;;;19.00;;
37169;SDS011;23062;13.952;100.608;2023-05-27T06:39:57;23.00;;;17.00;;
37169;SDS011;23062;13.952;100.608;2023-05-27T06:44:24;24.00;;;18.00;;
37169;SDS011;23062;13.952;100.608;2023-05-27T06:48:48;23.00;;;17.00;;
37169;SDS011;23062;13.952;100.608;2023-05-27T06:53:20;23.00;;;17.00;;
37169;SDS011;23062;13.952;100.608;2023-05-27T06:57:47;22.00;;;17.00;;
37169;SDS011;23062;13.952;100.608;2023-05-27T07:02:13;25.00;;;19.00;;
37169;SDS011;23062;13.952;100.608;2023-05-27T07:06:47;24.00;;;17.00;;
37169;SDS011;23062;13.952;100.608;2023-05-27T07:11:12;25.00;;;18.00;;
37169;SDS011;23062;13.952;100.608;2023-05-27T07:15:46;23.00;;;18.00;;
37169;SDS011;23062;13.952;100.608;2023-05-27T07:20:13;24.00;;;18.00;;
37169;SDS011;23062;13.952;100.608;2023-05-27T07:24:43;23.00;;;17.00;;
37169;SDS011;23062;13.952;100.608;2023-05-27T07:29:09;24.00;;;17.00;;
37169;SDS011;23062;13.952;100.608;2023-05-27T07:33:43;24.00;;;17.00;;
37169;SDS011;23062;13.952;100.608;2023-05-27T07:38:11;22.00;;;16.00;;
37169;SDS011;23062;13.952;100.608;2023-05-27T07:42:44;24.00;;;18.00;;
37169;SDS011;23062;13.952;100.608;2023-05-27T07:47:12;22.00;;;17.00;;
37169;SDS011;23062;13.952;100.608;2023-05-27T07:51:39;26.00;;;19.00;;
37169;SDS011;23062;13.952;100.608;2023-05-27T07:56:05;27.00;;;21.00;;
37169;SDS011;23062;13.952;100.608;2023-05-27T08:00:33;27.00;;;20.00;;
37169;SDS011;23062;13.952;100.608;2023-05-27T08:05:06;27.00;;;19.00;;
37169;SDS011;23062;13.952;100.608;2023-05-27T08:09:40;28.00;;;20.00;;
37169;SDS011;23062;13.952;100.608;2023-05-27T08:14:08;25.00;;;18.00;;
37169;SDS011;23062;13.952;100.608;2023-05-27T08:18:36;26.00;;;20.00;;
37169;SDS011;23062;13.952;100.608;2023-05-27T08:23:02;25.00;;;18.00;;
37169;SDS011;23062;13.952;100.608;2023-05-27T08:27:46;23.00;;;18.00;;
37169;SDS011;23062;13.952;100.608;2023-05-27T08:32:23;24.00;;;17.00;;
37169;SDS011;23062;13.952;100.608;2023-05-27T08:36:50;25.00;;;19.00;;
37169;SDS011;23062;13.952;100.608;2023-05-27T08:41:15;25.00;;;18.00;;
37169;SDS011;23062;13.952;100.608;2023-05-27T08:45:43;24.00;;;18.00;;
37169;SDS011;23062;13.952;100.608;2023-05-27T08:50:10;24.00;;;18.00;;
37169;SDS011;23062;13.952;100.608;2023-05-27T08:54:43;22.00;;;16.00;;
37169;SDS011;23062;13.952;100.608;2023-05-27T08:59:12;25.00;;;19.00;;
37169;SDS011;23062;13.952;100.608;2023-05-27T09:03:48;23.00;;;17.00;;
37169;SDS011;23062;13.952;100.608;2023-05-27T09:08:15;24.00;;;18.00;;
37169;SDS011;23062;13.952;100.608;2023-05-27T09:12:49;25.00;;;18.00;;
37169;SDS011;23062;13.952;100.608;2023-05-27T09:17:16;25.00;;;18.00;;
37169;SDS011;23062;13.952;100.608;2023-05-27T09:21:43;24.00;;;18.00;;
37169;SDS011;23062;13.952;100.608;2023-05-27T09:26:17;25.00;;;20.00;;
37169;SDS011;23062;13.952;100.608;2023-05-27T09:30:44;28.00;;;20.00;;
37169;SDS011;23062;13.952;100.608;2023-05-27T09:35:12;23.00;;;17.00;;
37169;SDS011;23062;13.952;100.608;2023-05-27T09:39:41;25.00;;;18.00;;
37169;SDS011;23062;13.952;100.608;2023-05-27T09:44:08;26.00;;;20.00;;
37169;SDS011;23062;13.952;100.608;2023-05-27T09:48:35;25.00;;;18.00;;
37169;SDS011;23062;13.952;100.608;2023-05-27T09:53:01;24.00;;;18.00;;
37169;SDS011;23062;13.952;100.608;2023-05-27T09:57:29;28.00;;;20.00;;
37169;SDS011;23062;13.952;100.608;2023-05-27T10:02:03;24.00;;;18.00;;
37169;SDS011;23062;13.952;100.608;2023-05-27T10:06:30;24.00;;;18.00;;
37169;SDS011;23062;13.952;100.608;2023-05-27T10:11:04;25.00;;;18.00;;
37169;SDS011;23062;13.952;100.608;2023-05-27T10:15:32;25.00;;;18.00;;
37169;SDS011;23062;13.952;100.608;2023-05-27T10:19:58;27.00;;;20.00;;
37169;SDS011;23062;13.952;100.608;2023-05-27T10:24:32;25.00;;;18.00;;
37169;SDS011;23062;13.952;100.608;2023-05-27T10:33:38;27.00;;;19.00;;
37169;SDS011;23062;13.952;100.608;2023-05-27T10:38:19;25.00;;;19.00;;
37169;SDS011;23062;13.952;100.608;2023-05-27T10:42:58;26.00;;;20.00;;
37169;SDS011;23062;13.952;100.608;2023-05-27T10:47:34;27.00;;;20.00;;
37169;SDS011;23062;13.952;100.608;2023-05-27T10:52:10;26.00;;;20.00;;
37169;SDS011;23062;13.952;100.608;2023-05-27T10:56:47;26.00;;;17.73;;
37169;SDS011;23062;13.952;100.608;2023-05-27T11:01:15;26.00;;;18.67;;
37169;SDS011;23062;13.952;100.608;2023-05-27T11:05:44;27.00;;;20.00;;
37169;SDS011;23062;13.952;100.608;2023-05-27T11:10:10;24.00;;;18.00;;
37169;SDS011;23062;13.952;100.608;2023-05-27T11:14:47;27.00;;;20.00;;
37169;SDS011;23062;13.952;100.608;2023-05-27T11:19:14;27.00;;;21.00;;
37169;SDS011;23062;13.952;100.608;2023-05-27T11:23:43;27.00;;;21.00;;
37169;SDS011;23062;13.952;100.608;2023-05-27T11:28:16;27.00;;;19.00;;
37169;SDS011;23062;13.952;100.608;2023-05-27T11:32:44;25.00;;;19.00;;
37169;SDS011;23062;13.952;100.608;2023-05-27T11:37:10;24.00;;;18.00;;
37169;SDS011;23062;13.952;100.608;2023-05-27T11:41:36;27.00;;;20.00;;
37169;SDS011;23062;13.952;100.608;2023-05-27T11:46:04;27.00;;;20.00;;
37169;SDS011;23062;13.952;100.608;2023-05-27T11:50:30;25.00;;;18.00;;
37169;SDS011;23062;13.952;100.608;2023-05-27T11:54:59;26.00;;;20.00;;
37169;SDS011;23062;13.952;100.608;2023-05-27T11:59:24;29.00;;;21.00;;
37169;SDS011;23062;13.952;100.608;2023-05-27T12:03:54;24.00;;;18.00;;
37169;SDS011;23062;13.952;100.608;2023-05-27T12:08:20;28.00;;;20.00;;
37169;SDS011;23062;13.952;100.608;2023-05-27T12:12:46;25.00;;;19.00;;
37169;SDS011;23062;13.952;100.608;2023-05-27T12:17:19;27.00;;;21.00;;
37169;SDS011;23062;13.952;100.608;2023-05-27T12:21:49;26.00;;;20.00;;
37169;SDS011;23062;13.952;100.608;2023-05-27T12:26:19;26.00;;;20.00;;
37169;SDS011;23062;13.952;100.608;2023-05-27T12:30:46;28.00;;;21.00;;
37169;SDS011;23062;13.952;100.608;2023-05-27T12:35:17;30.00;;;23.00;;
37169;SDS011;23062;13.952;100.608;2023-05-27T12:39:44;29.00;;;22.00;;
37169;SDS011;23062;13.952;100.608;2023-05-27T12:44:13;30.00;;;23.00;;
37169;SDS011;23062;13.952;100.608;2023-05-27T12:48:41;32.00;;;24.00;;
37169;SDS011;23062;13.952;100.608;2023-05-27T12:53:08;30.00;;;22.00;;
37169;SDS011;23062;13.952;100.608;2023-05-27T12:57:35;28.00;;;21.00;;
37169;SDS011;23062;13.952;100.608;2023-05-27T13:02:01;28.00;;;21.00;;
37169;SDS011;23062;13.952;100.608;2023-05-27T13:06:27;32.00;;;23.00;;
37169;SDS011;23062;13.952;100.608;2023-05-27T13:11:00;34.00;;;25.00;;
37169;SDS011;23062;13.952;100.608;2023-05-27T13:15:26;29.00;;;21.00;;
37169;SDS011;23062;13.952;100.608;2023-05-27T13:19:54;29.00;;;22.00;;
37169;SDS011;23062;13.952;100.608;2023-05-27T13:24:23;31.00;;;23.00;;
37169;SDS011;23062;13.952;100.608;2023-05-27T13:28:51;29.00;;;21.00;;
37169;SDS011;23062;13.952;100.608;2023-05-27T13:33:17;27.00;;;20.00;;
37169;SDS011;23062;13.952;100.608;2023-05-27T13:37:47;35.00;;;27.00;;
37169;SDS011;23062;13.952;100.608;2023-05-27T13:42:18;33.00;;;24.00;;
37169;SDS011;23062;13.952;100.608;2023-05-27T13:46:46;29.00;;;22.00;;
37169;SDS011;23062;13.952;100.608;2023-05-27T13:51:14;27.00;;;21.00;;
37169;SDS011;23062;13.952;100.608;2023-05-27T13:55:41;29.00;;;22.00;;
37169;SDS011;23062;13.952;100.608;2023-05-27T14:00:08;27.00;;;21.00;;
37169;SDS011;23062;13.952;100.608;2023-05-27T14:04:36;24.00;;;19.00;;
37169;SDS011;23062;13.952;100.608;2023-05-27T14:09:02;29.00;;;21.00;;
37169;SDS011;23062;13.952;100.608;2023-05-27T14:13:28;28.00;;;21.00;;
37169;SDS011;23062;13.952;100.608;2023-05-27T14:17:55;27.00;;;20.00;;
37169;SDS011;23062;13.952;100.608;2023-05-27T14:22:23;28.00;;;18.20;;
37169;SDS011;23062;13.952;100.608;2023-05-27T14:26:51;24.00;;;18.00;;
37169;SDS011;23062;13.952;100.608;2023-05-27T14:31:19;26.00;;;19.00;;
37169;SDS011;23062;13.952;100.608;2023-05-27T14:35:48;27.00;;;20.00;;
37169;SDS011;23062;13.952;100.608;2023-05-27T14:40:15;22.00;;;17.00;;
37169;SDS011;23062;13.952;100.608;2023-05-27T14:44:49;25.00;;;18.00;;
37169;SDS011;23062;13.952;100.608;2023-05-27T14:49:15;22.00;;;17.00;;
37169;SDS011;23062;13.952;100.608;2023-05-27T14:53:48;32.00;;;23.00;;
37169;SDS011;23062;13.952;100.608;2023-05-27T14:58:23;26.00;;;19.00;;
37169;SDS011;23062;13.952;100.608;2023-05-27T15:02:57;21.00;;;16.00;;
37169;SDS011;23062;13.952;100.608;2023-05-27T15:07:24;24.00;;;18.00;;
37169;SDS011;23062;13.952;100.608;2023-05-27T15:11:51;25.00;;;20.00;;
37169;SDS011;23062;13.952;100.608;2023-05-27T15:16:19;23.00;;;17.00;;
37169;SDS011;23062;13.952;100.608;2023-05-27T15:20:46;24.00;;;17.00;;
37169;SDS011;23062;13.952;100.608;2023-05-27T15:25:14;24.00;;;18.00;;
37169;SDS011;23062;13.952;100.608;2023-05-27T15:29:40;25.00;;;16.80;;
37169;SDS011;23062;13.952;100.608;2023-05-27T15:34:13;25.00;;;18.00;;
37169;SDS011;23062;13.952;100.608;2023-05-27T15:38:48;23.00;;;15.87;;
37169;SDS011;23062;13.952;100.608;2023-05-27T15:43:14;26.00;;;19.00;;
37169;SDS011;23062;13.952;100.608;2023-05-27T15:47:41;24.00;;;18.00;;
37169;SDS011;23062;13.952;100.608;2023-05-27T15:52:16;22.00;;;17.00;;
37169;SDS011;23062;13.952;100.608;2023-05-27T15:56:42;19.00;;;14.00;;
37169;SDS011;23062;13.952;100.608;2023-05-27T16:01:10;22.00;;;17.00;;
37169;SDS011;23062;13.952;100.608;2023-05-27T16:05:36;22.00;;;17.00;;
37169;SDS011;23062;13.952;100.608;2023-05-27T16:10:04;21.00;;;16.00;;
37169;SDS011;23062;13.952;100.608;2023-05-27T16:14:38;22.00;;;17.00;;
37169;SDS011;23062;13.952;100.608;2023-05-27T16:19:10;23.00;;;16.00;;
37169;SDS011;23062;13.952;100.608;2023-05-27T16:23:36;22.00;;;16.00;;
37169;SDS011;23062;13.952;100.608;2023-05-27T16:28:03;23.00;;;17.00;;
37169;SDS011;23062;13.952;100.608;2023-05-27T16:32:30;20.00;;;15.00;;
37169;SDS011;23062;13.952;100.608;2023-05-27T16:37:03;22.00;;;17.00;;
37169;SDS011;23062;13.952;100.608;2023-05-27T16:41:30;22.00;;;16.00;;
37169;SDS011;23062;13.952;100.608;2023-05-27T16:46:03;21.00;;;15.00;;
37169;SDS011;23062;13.952;100.608;2023-05-27T16:50:32;21.00;;;15.00;;
37169;SDS011;23062;13.952;100.608;2023-05-27T16:55:00;23.00;;;17.00;;
37169;SDS011;23062;13.952;100.608;2023-05-27T16:59:35;24.00;;;18.00;;
37169;SDS011;23062;13.952;100.608;2023-05-27T17:04:00;23.00;;;16.00;;
37169;SDS011;23062;13.952;100.608;2023-05-27T17:08:31;19.00;;;15.00;;
37169;SDS011;23062;13.952;100.608;2023-05-27T17:12:58;19.00;;;14.00;;
37169;SDS011;23062;13.952;100.608;2023-05-27T17:17:24;24.00;;;18.00;;
37169;SDS011;23062;13.952;100.608;2023-05-27T17:21:50;19.00;;;14.00;;
37169;SDS011;23062;13.952;100.608;2023-05-27T17:26:24;22.00;;;16.00;;
37169;SDS011;23062;13.952;100.608;2023-05-27T17:30:55;18.00;;;13.07;;
37169;SDS011;23062;13.952;100.608;2023-05-27T17:35:22;21.00;;;15.00;;
37169;SDS011;23062;13.952;100.608;2023-05-27T17:39:57;18.00;;;14.00;;
37169;SDS011;23062;13.952;100.608;2023-05-27T17:44:27;17.00;;;12.00;;
37169;SDS011;23062;13.952;100.608;2023-05-27T17:48:54;19.00;;;15.00;;
37169;SDS011;23062;13.952;100.608;2023-05-27T17:53:22;17.00;;;13.00;;
37169;SDS011;23062;13.952;100.608;2023-05-27T17:57:51;18.00;;;13.00;;
37169;SDS011;23062;13.952;100.608;2023-05-27T18:02:19;17.00;;;13.00;;
37169;SDS011;23062;13.952;100.608;2023-05-27T18:06:47;21.00;;;15.00;;
37169;SDS011;23062;13.952;100.608;2023-05-27T18:11:17;18.00;;;14.00;;
37169;SDS011;23062;13.952;100.608;2023-05-27T18:15:50;20.00;;;15.00;;
37169;SDS011;23062;13.952;100.608;2023-05-27T18:20:17;20.00;;;15.00;;
37169;SDS011;23062;13.952;100.608;2023-05-27T18:24:48;18.00;;;14.00;;
37169;SDS011;23062;13.952;100.608;2023-05-27T18:29:15;17.00;;;13.00;;
37169;SDS011;23062;13.952;100.608;2023-05-27T18:33:46;17.00;;;12.13;;
37169;SDS011;23062;13.952;100.608;2023-05-27T18:38:14;19.00;;;15.00;;
37169;SDS011;23062;13.952;100.608;2023-05-27T18:42:40;18.00;;;13.00;;
37169;SDS011;23062;13.952;100.608;2023-05-27T18:47:12;20.00;;;14.00;;
37169;SDS011;23062;13.952;100.608;2023-05-27T18:51:39;17.00;;;13.00;;
37169;SDS011;23062;13.952;100.608;2023-05-27T18:56:07;18.00;;;13.00;;
37169;SDS011;23062;13.952;100.608;2023-05-27T19:00:41;20.00;;;14.00;;
37169;SDS011;23062;13.952;100.608;2023-05-27T19:05:09;19.00;;;15.00;;
37169;SDS011;23062;13.952;100.608;2023-05-27T19:09:34;20.00;;;15.00;;
37169;SDS011;23062;13.952;100.608;2023-05-27T19:14:08;19.00;;;14.00;;
37169;SDS011;23062;13.952;100.608;2023-05-27T19:18:33;18.00;;;13.00;;
37169;SDS011;23062;13.952;100.608;2023-05-27T19:22:59;16.00;;;12.00;;
37169;SDS011;23062;13.952;100.608;2023-05-27T19:27:33;15.00;;;11.00;;
37169;SDS011;23062;13.952;100.608;2023-05-27T19:32:00;21.00;;;15.00;;
37169;SDS011;23062;13.952;100.608;2023-05-27T19:36:28;15.00;;;12.00;;
37169;SDS011;23062;13.952;100.608;2023-05-27T19:40:54;16.00;;;12.00;;
37169;SDS011;23062;13.952;100.608;2023-05-27T19:45:22;17.00;;;12.00;;
37169;SDS011;23062;13.952;100.608;2023-05-27T19:49:51;14.00;;;10.00;;
37169;SDS011;23062;13.952;100.608;2023-05-27T19:54:26;12.00;;;9.00;;
37169;SDS011;23062;13.952;100.608;2023-05-27T19:58:55;10.00;;;7.00;;
37169;SDS011;23062;13.952;100.608;2023-05-27T20:03:21;10.00;;;7.00;;
37169;SDS011;23062;13.952;100.608;2023-05-27T20:07:49;7.00;;;5.00;;
37169;SDS011;23062;13.952;100.608;2023-05-27T20:12:15;7.00;;;5.00;;
37169;SDS011;23062;13.952;100.608;2023-05-27T20:16:41;7.00;;;5.00;;
37169;SDS011;23062;13.952;100.608;2023-05-27T20:21:06;6.00;;;4.00;;
37169;SDS011;23062;13.952;100.608;2023-05-27T20:25:33;5.00;;;3.00;;
37169;SDS011;23062;13.952;100.608;2023-05-27T20:30:04;6.00;;;4.00;;
37169;SDS011;23062;13.952;100.608;2023-05-27T20:34:33;6.00;;;4.00;;
37169;SDS011;23062;13.952;100.608;2023-05-27T20:39:04;6.00;;;4.00;;
37169;SDS011;23062;13.952;100.608;2023-05-27T20:43:31;7.00;;;5.00;;
37169;SDS011;23062;13.952;100.608;2023-05-27T20:47:58;3.00;;;2.00;;
37169;SDS011;23062;13.952;100.608;2023-05-27T20:52:25;5.00;;;3.00;;
37169;SDS011;23062;13.952;100.608;2023-05-27T20:56:52;5.00;;;3.00;;
37169;SDS011;23062;13.952;100.608;2023-05-27T21:01:23;4.00;;;3.00;;
37169;SDS011;23062;13.952;100.608;2023-05-27T21:05:50;5.00;;;3.00;;
37169;SDS011;23062;13.952;100.608;2023-05-27T21:10:18;5.00;;;3.00;;
37169;SDS011;23062;13.952;100.608;2023-05-27T21:14:48;5.00;;;3.00;;
37169;SDS011;23062;13.952;100.608;2023-05-27T21:19:19;5.00;;;3.00;;
37169;SDS011;23062;13.952;100.608;2023-05-27T21:23:48;3.00;;;2.00;;
37169;SDS011;23062;13.952;100.608;2023-05-27T21:28:18;3.00;;;2.00;;
37169;SDS011;23062;13.952;100.608;2023-05-27T21:32:45;5.00;;;3.00;;
37169;SDS011;23062;13.952;100.608;2023-05-27T21:37:18;6.00;;;4.00;;
37169;SDS011;23062;13.952;100.608;2023-05-27T21:41:45;6.00;;;4.00;;
37169;SDS011;23062;13.952;100.608;2023-05-27T21:46:13;8.00;;;5.00;;
37169;SDS011;23062;13.952;100.608;2023-05-27T21:50:44;6.00;;;4.00;;
37169;SDS011;23062;13.952;100.608;2023-05-27T21:55:10;8.00;;;6.00;;
37169;SDS011;23062;13.952;100.608;2023-05-27T21:59:43;9.00;;;6.00;;
37169;SDS011;23062;13.952;100.608;2023-05-27T22:04:11;7.00;;;5.00;;
37169;SDS011;23062;13.952;100.608;2023-05-27T22:08:37;9.00;;;6.00;;
37169;SDS011;23062;13.952;100.608;2023-05-27T22:13:09;7.00;;;5.00;;
37169;SDS011;23062;13.952;100.608;2023-05-27T22:17:36;7.00;;;5.00;;
37169;SDS011;23062;13.952;100.608;2023-05-27T22:22:02;8.00;;;5.00;;
37169;SDS011;23062;13.952;100.608;2023-05-27T22:26:36;6.00;;;4.00;;
37169;SDS011;23062;13.952;100.608;2023-05-27T22:31:10;7.00;;;5.00;;
37169;SDS011;23062;13.952;100.608;2023-05-27T22:35:36;7.00;;;5.00;;
37169;SDS011;23062;13.952;100.608;2023-05-27T22:40:11;8.00;;;6.00;;
37169;SDS011;23062;13.952;100.608;2023-05-27T22:44:38;9.00;;;7.00;;
37169;SDS011;23062;13.952;100.608;2023-05-27T22:49:11;11.00;;;8.00;;
37169;SDS011;23062;13.952;100.608;2023-05-27T22:53:40;12.00;;;8.00;;
37169;SDS011;23062;13.952;100.608;2023-05-27T22:58:06;13.00;;;9.00;;
37169;SDS011;23062;13.952;100.608;2023-05-27T23:02:38;14.00;;;10.00;;
37169;SDS011;23062;13.952;100.608;2023-05-27T23:07:11;15.00;;;11.00;;
37169;SDS011;23062;13.952;100.608;2023-05-27T23:11:45;14.00;;;10.00;;
37169;SDS011;23062;13.952;100.608;2023-05-27T23:16:11;12.00;;;9.00;;
37169;SDS011;23062;13.952;100.608;2023-05-27T23:20:37;13.00;;;9.00;;
37169;SDS011;23062;13.952;100.608;2023-05-27T23:25:03;11.00;;;8.00;;
37169;SDS011;23062;13.952;100.608;2023-05-27T23:29:30;15.00;;;11.00;;
37169;SDS011;23062;13.952;100.608;2023-05-27T23:34:04;11.00;;;8.00;;
37169;SDS011;23062;13.952;100.608;2023-05-27T23:38:29;10.00;;;7.00;;
37169;SDS011;23062;13.952;100.608;2023-05-27T23:42:55;12.00;;;9.00;;
37169;SDS011;23062;13.952;100.608;2023-05-27T23:47:21;13.00;;;10.00;;
37169;SDS011;23062;13.952;100.608;2023-05-27T23:51:48;8.00;;;6.00;;
37169;SDS011;23062;13.952;100.608;2023-05-27T23:56:13;9.00;;;7.00;;
